This is the latest recevied weather packets stored in our database for station/object WX1N. If no packets are shown the sender has not sent any weather packets the latest 1 day(s).
| Time | Temp. | Humidity | Pressure | Rain* | Wind** | Luminosity | Snow |
|---|---|---|---|---|---|---|---|
| 1778043603 | 17.78° C | 73% | 1007.2 hPa | 0 mm | 0 m/s | - | - |
| 1778043303 | 17.78° C | 73% | 1007.1 hPa | 0 mm | 0 m/s | - | - |
| 1778043003 | 17.78° C | 74% | 1007 hPa | 0 mm | 0 m/s | - | - |
| 1778042703 | 17.78° C | 76% | 1007.1 hPa | 0 mm | 0 m/s | - | - |
| 1778042403 | 17.22° C | 77% | 1007 hPa | 0 mm | 0 m/s | - | - |
| 1778042103 | 17.22° C | 80% | 1007 hPa | 0 mm | 0 m/s | - | - |
| 1778041803 | 17.22° C | 80% | 1007.1 hPa | 0 mm | 0 m/s | - | - |
| 1778041503 | 17.22° C | 79% | 1007.1 hPa | 0 mm | 0 m/s | - | - |
| 1778041204 | 16.67° C | 81% | 1007 hPa | 0 mm | 0 m/s | - | - |
| 1778040903 | 16.67° C | 81% | 1006.9 hPa | 0 mm | 0 m/s | - | - |
| 1778040603 | 17.22° C | 80% | 1006.8 hPa | 0 mm | 0 m/s | - | - |
| 1778040303 | 17.78° C | 78% | 1006.6 hPa | 0 mm | 0 m/s | - | - |
| 1778040003 | 17.78° C | 78% | 1006.4 hPa | 0 mm | 0 m/s | - | - |
| 1778039703 | 17.78° C | 79% | 1006.7 hPa | 0 mm | 0 m/s | - | - |
| 1778039403 | 17.22° C | 81% | 1006.7 hPa | 0 mm | 0 m/s | - | - |
| 1778039103 | 16.67° C | 83% | 1006.8 hPa | 0 mm | 0 m/s | - | - |
| 1778038803 | 16.67° C | 83% | 1006.8 hPa | 0 mm | 0 m/s | - | - |
| 1778038503 | 16.67° C | 84% | 1006.9 hPa | 0 mm | 0 m/s | - | - |
| 1778038203 | 16.67° C | 85% | 1006.9 hPa | 0 mm | 0 m/s | - | - |
| 1778037903 | 16.11° C | 86% | 1006.9 hPa | 0 mm | 0 m/s | - | - |
| 1778037603 | 15.56° C | 86% | 1006.9 hPa | 0 mm | 0 m/s | - | - |
| 1778037303 | 15° C | 86% | 1006.9 hPa | 0 mm | 0 m/s | - | - |
| 1778037003 | 15° C | 86% | 1006.8 hPa | 0 mm | 0 m/s | - | - |
| 1778036703 | 15° C | 85% | 1006.8 hPa | 0 mm | 0 m/s | - | - |
| 1778036403 | 15° C | 85% | 1006.9 hPa | 0 mm | 0 m/s | - | - |
* Rain latest hour (hover to see other rain measurements)
** Current wind speed in m/s (hover to see current wind gust speed)